sensor_id;sensor_type;location;lat;lon;timestamp;P1;durP1;ratioP1;P2;durP2;ratioP2
51913;SDS011;37940;53.002;6.930;2023-02-15T00:01:30;39.78;;;23.92;;
51913;SDS011;37940;53.002;6.930;2023-02-15T00:03:56;31.15;;;21.65;;
51913;SDS011;37940;53.002;6.930;2023-02-15T00:06:22;32.58;;;23.30;;
51913;SDS011;37940;53.002;6.930;2023-02-15T00:08:48;32.17;;;23.20;;
51913;SDS011;37940;53.002;6.930;2023-02-15T00:11:15;35.03;;;23.50;;
51913;SDS011;37940;53.002;6.930;2023-02-15T00:14:03;36.17;;;24.08;;
51913;SDS011;37940;53.002;6.930;2023-02-15T00:16:33;32.35;;;22.30;;
51913;SDS011;37940;53.002;6.930;2023-02-15T00:18:59;33.83;;;22.30;;
51913;SDS011;37940;53.002;6.930;2023-02-15T00:21:27;36.70;;;22.08;;
51913;SDS011;37940;53.002;6.930;2023-02-15T00:23:55;33.53;;;22.20;;
51913;SDS011;37940;53.002;6.930;2023-02-15T00:26:21;36.22;;;23.23;;
51913;SDS011;37940;53.002;6.930;2023-02-15T00:28:46;39.38;;;23.25;;
51913;SDS011;37940;53.002;6.930;2023-02-15T00:31:12;46.22;;;26.35;;
51913;SDS011;37940;53.002;6.930;2023-02-15T00:33:38;52.30;;;28.40;;
51913;SDS011;37940;53.002;6.930;2023-02-15T00:36:05;45.42;;;26.30;;
51913;SDS011;37940;53.002;6.930;2023-02-15T00:38:33;46.85;;;27.30;;
51913;SDS011;37940;53.002;6.930;2023-02-15T00:41:00;45.60;;;24.85;;
51913;SDS011;37940;53.002;6.930;2023-02-15T00:43:28;43.88;;;25.52;;
51913;SDS011;37940;53.002;6.930;2023-02-15T00:45:54;44.85;;;25.88;;
51913;SDS011;37940;53.002;6.930;2023-02-15T00:48:20;47.60;;;26.30;;
51913;SDS011;37940;53.002;6.930;2023-02-15T00:50:51;50.85;;;29.13;;
51913;SDS011;37940;53.002;6.930;2023-02-15T00:53:18;48.70;;;28.05;;
51913;SDS011;37940;53.002;6.930;2023-02-15T00:55:44;64.55;;;29.50;;
51913;SDS011;37940;53.002;6.930;2023-02-15T00:58:11;140.60;;;32.17;;
51913;SDS011;37940;53.002;6.930;2023-02-15T01:00:38;68.97;;;30.73;;
51913;SDS011;37940;53.002;6.930;2023-02-15T01:03:04;113.22;;;34.33;;
51913;SDS011;37940;53.002;6.930;2023-02-15T01:05:31;74.32;;;31.58;;
51913;SDS011;37940;53.002;6.930;2023-02-15T01:07:57;76.72;;;30.88;;
51913;SDS011;37940;53.002;6.930;2023-02-15T01:10:24;113.28;;;32.45;;
51913;SDS011;37940;53.002;6.930;2023-02-15T01:12:50;93.90;;;28.67;;
51913;SDS011;37940;53.002;6.930;2023-02-15T01:15:16;104.13;;;32.00;;
51913;SDS011;37940;53.002;6.930;2023-02-15T01:17:42;61.85;;;30.45;;
51913;SDS011;37940;53.002;6.930;2023-02-15T01:20:11;67.13;;;31.95;;
51913;SDS011;37940;53.002;6.930;2023-02-15T01:22:37;57.53;;;26.48;;
51913;SDS011;37940;53.002;6.930;2023-02-15T01:25:02;65.97;;;28.33;;
51913;SDS011;37940;53.002;6.930;2023-02-15T01:27:28;42.95;;;27.50;;
51913;SDS011;37940;53.002;6.930;2023-02-15T01:29:57;51.58;;;27.60;;
51913;SDS011;37940;53.002;6.930;2023-02-15T01:32:23;43.35;;;25.88;;
51913;SDS011;37940;53.002;6.930;2023-02-15T01:34:48;61.58;;;28.73;;
51913;SDS011;37940;53.002;6.930;2023-02-15T01:37:14;48.33;;;27.42;;
51913;SDS011;37940;53.002;6.930;2023-02-15T01:39:40;45.15;;;26.15;;
51913;SDS011;37940;53.002;6.930;2023-02-15T01:42:09;46.92;;;27.40;;
51913;SDS011;37940;53.002;6.930;2023-02-15T01:44:47;43.55;;;25.77;;
51913;SDS011;37940;53.002;6.930;2023-02-15T01:47:22;42.63;;;25.42;;
51913;SDS011;37940;53.002;6.930;2023-02-15T01:53:11;44.50;;;26.67;;
51913;SDS011;37940;53.002;6.930;2023-02-15T01:55:48;43.28;;;25.02;;
51913;SDS011;37940;53.002;6.930;2023-02-15T01:58:19;43.78;;;27.17;;
51913;SDS011;37940;53.002;6.930;2023-02-15T02:00:46;74.90;;;40.13;;
51913;SDS011;37940;53.002;6.930;2023-02-15T02:03:12;63.15;;;34.60;;
51913;SDS011;37940;53.002;6.930;2023-02-15T02:05:38;69.25;;;36.70;;
51913;SDS011;37940;53.002;6.930;2023-02-15T02:08:05;47.30;;;28.63;;
51913;SDS011;37940;53.002;6.930;2023-02-15T02:10:34;49.38;;;29.48;;
51913;SDS011;37940;53.002;6.930;2023-02-15T02:13:04;60.53;;;30.90;;
51913;SDS011;37940;53.002;6.930;2023-02-15T02:15:42;50.95;;;28.45;;
51913;SDS011;37940;53.002;6.930;2023-02-15T02:21:19;42.38;;;25.05;;
51913;SDS011;37940;53.002;6.930;2023-02-15T02:24:16;53.30;;;29.58;;
51913;SDS011;37940;53.002;6.930;2023-02-15T02:41:17;49.88;;;28.90;;
51913;SDS011;37940;53.002;6.930;2023-02-15T02:44:04;45.38;;;26.33;;
51913;SDS011;37940;53.002;6.930;2023-02-15T02:49:08;57.85;;;31.08;;
51913;SDS011;37940;53.002;6.930;2023-02-15T02:51:34;52.10;;;29.95;;
51913;SDS011;37940;53.002;6.930;2023-02-15T02:54:00;54.10;;;29.73;;
51913;SDS011;37940;53.002;6.930;2023-02-15T02:56:36;64.55;;;34.20;;
51913;SDS011;37940;53.002;6.930;2023-02-15T02:59:14;58.42;;;32.30;;
51913;SDS011;37940;53.002;6.930;2023-02-15T03:01:47;53.97;;;29.15;;
51913;SDS011;37940;53.002;6.930;2023-02-15T03:07:01;58.47;;;28.42;;
51913;SDS011;37940;53.002;6.930;2023-02-15T03:17:25;65.13;;;30.05;;
51913;SDS011;37940;53.002;6.930;2023-02-15T03:19:55;61.85;;;29.30;;
51913;SDS011;37940;53.002;6.930;2023-02-15T03:22:26;64.75;;;31.15;;
51913;SDS011;37940;53.002;6.930;2023-02-15T03:24:58;63.08;;;30.17;;
51913;SDS011;37940;53.002;6.930;2023-02-15T03:27:32;62.90;;;30.67;;
51913;SDS011;37940;53.002;6.930;2023-02-15T03:30:02;53.88;;;28.60;;
51913;SDS011;37940;53.002;6.930;2023-02-15T03:32:31;59.13;;;29.77;;
51913;SDS011;37940;53.002;6.930;2023-02-15T03:34:58;74.32;;;31.63;;
51913;SDS011;37940;53.002;6.930;2023-02-15T03:37:32;103.32;;;31.38;;
51913;SDS011;37940;53.002;6.930;2023-02-15T03:40:11;116.05;;;32.55;;
51913;SDS011;37940;53.002;6.930;2023-02-15T03:51:44;69.28;;;32.05;;
51913;SDS011;37940;53.002;6.930;2023-02-15T03:54:19;73.68;;;31.25;;
51913;SDS011;37940;53.002;6.930;2023-02-15T03:57:11;74.85;;;30.08;;
51913;SDS011;37940;53.002;6.930;2023-02-15T04:00:11;71.40;;;32.03;;
51913;SDS011;37940;53.002;6.930;2023-02-15T04:03:19;74.13;;;31.17;;
51913;SDS011;37940;53.002;6.930;2023-02-15T04:05:53;68.50;;;32.38;;
51913;SDS011;37940;53.002;6.930;2023-02-15T04:08:19;68.63;;;31.98;;
51913;SDS011;37940;53.002;6.930;2023-02-15T04:10:45;66.55;;;31.02;;
51913;SDS011;37940;53.002;6.930;2023-02-15T04:13:23;67.47;;;31.58;;
51913;SDS011;37940;53.002;6.930;2023-02-15T04:15:55;64.97;;;30.10;;
51913;SDS011;37940;53.002;6.930;2023-02-15T04:18:34;69.32;;;31.67;;
51913;SDS011;37940;53.002;6.930;2023-02-15T04:21:21;71.20;;;31.63;;
51913;SDS011;37940;53.002;6.930;2023-02-15T04:24:06;69.85;;;31.85;;
51913;SDS011;37940;53.002;6.930;2023-02-15T04:26:51;66.72;;;32.70;;
51913;SDS011;37940;53.002;6.930;2023-02-15T04:29:21;70.53;;;32.20;;
51913;SDS011;37940;53.002;6.930;2023-02-15T04:31:48;68.93;;;32.58;;
51913;SDS011;37940;53.002;6.930;2023-02-15T04:34:14;71.15;;;34.15;;
51913;SDS011;37940;53.002;6.930;2023-02-15T04:36:41;69.80;;;32.55;;
51913;SDS011;37940;53.002;6.930;2023-02-15T04:39:07;77.57;;;35.03;;
51913;SDS011;37940;53.002;6.930;2023-02-15T04:41:33;79.43;;;36.22;;
51913;SDS011;37940;53.002;6.930;2023-02-15T04:43:59;97.47;;;36.70;;
51913;SDS011;37940;53.002;6.930;2023-02-15T04:46:26;88.30;;;35.63;;
51913;SDS011;37940;53.002;6.930;2023-02-15T04:48:53;84.20;;;36.47;;
51913;SDS011;37940;53.002;6.930;2023-02-15T04:51:19;76.72;;;35.17;;
51913;SDS011;37940;53.002;6.930;2023-02-15T04:53:45;67.78;;;33.30;;
51913;SDS011;37940;53.002;6.930;2023-02-15T04:56:11;74.50;;;35.40;;
51913;SDS011;37940;53.002;6.930;2023-02-15T04:58:36;72.43;;;34.65;;
51913;SDS011;37940;53.002;6.930;2023-02-15T05:01:06;69.30;;;33.92;;
51913;SDS011;37940;53.002;6.930;2023-02-15T05:03:32;75.35;;;35.63;;
51913;SDS011;37940;53.002;6.930;2023-02-15T05:05:58;74.00;;;35.00;;
51913;SDS011;37940;53.002;6.930;2023-02-15T05:08:24;65.63;;;33.40;;
51913;SDS011;37940;53.002;6.930;2023-02-15T05:10:50;67.22;;;32.50;;
51913;SDS011;37940;53.002;6.930;2023-02-15T05:13:16;77.38;;;36.17;;
51913;SDS011;37940;53.002;6.930;2023-02-15T05:15:46;79.97;;;36.75;;
51913;SDS011;37940;53.002;6.930;2023-02-15T05:18:21;67.07;;;34.13;;
51913;SDS011;37940;53.002;6.930;2023-02-15T05:20:47;72.15;;;35.38;;
51913;SDS011;37940;53.002;6.930;2023-02-15T05:23:13;76.70;;;35.33;;
51913;SDS011;37940;53.002;6.930;2023-02-15T05:25:39;85.35;;;38.03;;
51913;SDS011;37940;53.002;6.930;2023-02-15T05:28:25;76.13;;;33.25;;
51913;SDS011;37940;53.002;6.930;2023-02-15T05:33:32;92.03;;;35.08;;
51913;SDS011;37940;53.002;6.930;2023-02-15T05:35:59;124.70;;;37.35;;
51913;SDS011;37940;53.002;6.930;2023-02-15T05:38:25;101.15;;;36.90;;
51913;SDS011;37940;53.002;6.930;2023-02-15T05:40:51;131.93;;;37.88;;
51913;SDS011;37940;53.002;6.930;2023-02-15T05:43:17;110.93;;;36.45;;
51913;SDS011;37940;53.002;6.930;2023-02-15T05:45:45;158.63;;;39.92;;
51913;SDS011;37940;53.002;6.930;2023-02-15T05:48:15;104.18;;;37.00;;
51913;SDS011;37940;53.002;6.930;2023-02-15T05:50:41;94.78;;;37.55;;
51913;SDS011;37940;53.002;6.930;2023-02-15T05:53:07;106.05;;;36.72;;
51913;SDS011;37940;53.002;6.930;2023-02-15T05:55:33;102.25;;;37.55;;
51913;SDS011;37940;53.002;6.930;2023-02-15T05:57:58;82.88;;;35.08;;
51913;SDS011;37940;53.002;6.930;2023-02-15T06:00:24;73.65;;;35.03;;
51913;SDS011;37940;53.002;6.930;2023-02-15T06:02:50;90.25;;;36.65;;
51913;SDS011;37940;53.002;6.930;2023-02-15T06:05:16;81.00;;;36.08;;
51913;SDS011;37940;53.002;6.930;2023-02-15T06:07:42;91.00;;;37.53;;
51913;SDS011;37940;53.002;6.930;2023-02-15T06:10:09;76.47;;;35.75;;
51913;SDS011;37940;53.002;6.930;2023-02-15T06:12:35;96.68;;;37.20;;
51913;SDS011;37940;53.002;6.930;2023-02-15T06:15:01;77.13;;;35.95;;
51913;SDS011;37940;53.002;6.930;2023-02-15T06:17:28;88.47;;;38.13;;
51913;SDS011;37940;53.002;6.930;2023-02-15T06:19:54;80.13;;;38.20;;
51913;SDS011;37940;53.002;6.930;2023-02-15T06:22:19;77.40;;;37.30;;
51913;SDS011;37940;53.002;6.930;2023-02-15T06:24:46;96.32;;;40.67;;
51913;SDS011;37940;53.002;6.930;2023-02-15T06:27:12;98.35;;;40.00;;
51913;SDS011;37940;53.002;6.930;2023-02-15T06:29:38;79.57;;;37.45;;
51913;SDS011;37940;53.002;6.930;2023-02-15T06:32:04;99.82;;;40.70;;
51913;SDS011;37940;53.002;6.930;2023-02-15T06:34:30;90.00;;;39.00;;
51913;SDS011;37940;53.002;6.930;2023-02-15T06:36:56;103.03;;;41.75;;
51913;SDS011;37940;53.002;6.930;2023-02-15T06:39:22;80.38;;;38.65;;
51913;SDS011;37940;53.002;6.930;2023-02-15T06:41:48;103.93;;;41.25;;
51913;SDS011;37940;53.002;6.930;2023-02-15T06:44:14;98.20;;;41.55;;
51913;SDS011;37940;53.002;6.930;2023-02-15T06:46:40;96.07;;;40.08;;
51913;SDS011;37940;53.002;6.930;2023-02-15T06:49:05;110.03;;;41.13;;
51913;SDS011;37940;53.002;6.930;2023-02-15T06:51:31;94.70;;;42.22;;
51913;SDS011;37940;53.002;6.930;2023-02-15T06:53:59;106.47;;;42.72;;
51913;SDS011;37940;53.002;6.930;2023-02-15T06:56:27;112.35;;;45.55;;
51913;SDS011;37940;53.002;6.930;2023-02-15T06:58:54;113.13;;;45.22;;
51913;SDS011;37940;53.002;6.930;2023-02-15T07:01:20;112.55;;;44.75;;
51913;SDS011;37940;53.002;6.930;2023-02-15T07:03:45;126.38;;;46.13;;
51913;SDS011;37940;53.002;6.930;2023-02-15T07:06:11;129.82;;;47.25;;
51913;SDS011;37940;53.002;6.930;2023-02-15T07:08:38;128.90;;;46.88;;
51913;SDS011;37940;53.002;6.930;2023-02-15T07:11:04;143.25;;;51.90;;
51913;SDS011;37940;53.002;6.930;2023-02-15T07:13:49;123.72;;;47.85;;
51913;SDS011;37940;53.002;6.930;2023-02-15T07:16:17;135.18;;;51.40;;
51913;SDS011;37940;53.002;6.930;2023-02-15T07:18:44;143.90;;;52.80;;
51913;SDS011;37940;53.002;6.930;2023-02-15T07:21:10;146.82;;;51.40;;
51913;SDS011;37940;53.002;6.930;2023-02-15T07:23:36;149.27;;;53.47;;
51913;SDS011;37940;53.002;6.930;2023-02-15T07:26:03;144.45;;;53.92;;
51913;SDS011;37940;53.002;6.930;2023-02-15T07:28:30;140.23;;;50.80;;
51913;SDS011;37940;53.002;6.930;2023-02-15T07:30:56;143.50;;;56.50;;
51913;SDS011;37940;53.002;6.930;2023-02-15T07:33:22;152.52;;;53.35;;
51913;SDS011;37940;53.002;6.930;2023-02-15T07:35:52;147.00;;;53.58;;
51913;SDS011;37940;53.002;6.930;2023-02-15T07:38:20;166.23;;;55.78;;
51913;SDS011;37940;53.002;6.930;2023-02-15T07:40:47;171.93;;;56.30;;
51913;SDS011;37940;53.002;6.930;2023-02-15T07:43:13;171.90;;;57.83;;
51913;SDS011;37940;53.002;6.930;2023-02-15T07:45:39;170.80;;;58.17;;
51913;SDS011;37940;53.002;6.930;2023-02-15T07:48:05;141.02;;;53.78;;
51913;SDS011;37940;53.002;6.930;2023-02-15T07:50:31;181.85;;;60.47;;
51913;SDS011;37940;53.002;6.930;2023-02-15T07:52:57;159.48;;;57.78;;
51913;SDS011;37940;53.002;6.930;2023-02-15T07:55:26;156.35;;;58.67;;
51913;SDS011;37940;53.002;6.930;2023-02-15T07:57:52;183.68;;;61.88;;
51913;SDS011;37940;53.002;6.930;2023-02-15T08:00:19;151.32;;;55.38;;
51913;SDS011;37940;53.002;6.930;2023-02-15T08:02:55;182.82;;;60.05;;
51913;SDS011;37940;53.002;6.930;2023-02-15T08:05:40;146.93;;;54.45;;
51913;SDS011;37940;53.002;6.930;2023-02-15T08:08:08;151.63;;;58.00;;
51913;SDS011;37940;53.002;6.930;2023-02-15T08:10:56;137.68;;;53.85;;
51913;SDS011;37940;53.002;6.930;2023-02-15T08:16:38;148.15;;;57.45;;
51913;SDS011;37940;53.002;6.930;2023-02-15T08:19:07;144.13;;;60.38;;
51913;SDS011;37940;53.002;6.930;2023-02-15T08:21:56;157.43;;;58.75;;
51913;SDS011;37940;53.002;6.930;2023-02-15T08:24:27;150.45;;;56.10;;
51913;SDS011;37940;53.002;6.930;2023-02-15T08:26:55;146.45;;;57.90;;
51913;SDS011;37940;53.002;6.930;2023-02-15T08:29:22;162.20;;;62.42;;
51913;SDS011;37940;53.002;6.930;2023-02-15T08:31:54;170.63;;;68.65;;
51913;SDS011;37940;53.002;6.930;2023-02-15T08:34:23;139.15;;;59.10;;
51913;SDS011;37940;53.002;6.930;2023-02-15T08:36:50;147.43;;;59.25;;
51913;SDS011;37940;53.002;6.930;2023-02-15T08:39:16;143.73;;;57.05;;
51913;SDS011;37940;53.002;6.930;2023-02-15T08:41:43;134.10;;;60.45;;
51913;SDS011;37940;53.002;6.930;2023-02-15T08:44:10;156.88;;;66.28;;
51913;SDS011;37940;53.002;6.930;2023-02-15T08:46:36;145.20;;;57.88;;
51913;SDS011;37940;53.002;6.930;2023-02-15T08:49:04;124.45;;;54.88;;
51913;SDS011;37940;53.002;6.930;2023-02-15T08:51:31;124.03;;;60.22;;
51913;SDS011;37940;53.002;6.930;2023-02-15T08:54:03;118.57;;;54.42;;
51913;SDS011;37940;53.002;6.930;2023-02-15T08:56:34;101.88;;;49.78;;
51913;SDS011;37940;53.002;6.930;2023-02-15T08:59:02;123.18;;;54.95;;
51913;SDS011;37940;53.002;6.930;2023-02-15T09:01:29;114.85;;;54.33;;
51913;SDS011;37940;53.002;6.930;2023-02-15T09:03:57;126.55;;;55.90;;
51913;SDS011;37940;53.002;6.930;2023-02-15T09:06:25;118.55;;;54.67;;
51913;SDS011;37940;53.002;6.930;2023-02-15T09:08:52;126.30;;;55.65;;
51913;SDS011;37940;53.002;6.930;2023-02-15T09:11:20;96.78;;;49.45;;
51913;SDS011;37940;53.002;6.930;2023-02-15T09:13:55;114.90;;;52.15;;
51913;SDS011;37940;53.002;6.930;2023-02-15T09:16:23;104.13;;;51.22;;
51913;SDS011;37940;53.002;6.930;2023-02-15T09:18:51;98.35;;;49.65;;
51913;SDS011;37940;53.002;6.930;2023-02-15T09:21:18;99.65;;;48.42;;
51913;SDS011;37940;53.002;6.930;2023-02-15T09:23:47;109.68;;;52.80;;
51913;SDS011;37940;53.002;6.930;2023-02-15T09:26:15;86.30;;;45.05;;
51913;SDS011;37940;53.002;6.930;2023-02-15T09:28:45;88.22;;;47.15;;
51913;SDS011;37940;53.002;6.930;2023-02-15T09:31:14;93.63;;;47.28;;
51913;SDS011;37940;53.002;6.930;2023-02-15T09:33:40;95.72;;;49.13;;
51913;SDS011;37940;53.002;6.930;2023-02-15T09:36:15;78.13;;;44.88;;
51913;SDS011;37940;53.002;6.930;2023-02-15T09:39:06;82.32;;;44.45;;
51913;SDS011;37940;53.002;6.930;2023-02-15T09:44:24;77.63;;;43.67;;
51913;SDS011;37940;53.002;6.930;2023-02-15T09:55:44;63.53;;;38.40;;
51913;SDS011;37940;53.002;6.930;2023-02-15T10:01:18;58.10;;;37.88;;
51913;SDS011;37940;53.002;6.930;2023-02-15T10:20:04;53.60;;;35.60;;
51913;SDS011;37940;53.002;6.930;2023-02-15T10:28:28;50.75;;;34.60;;
51913;SDS011;37940;53.002;6.930;2023-02-15T10:31:07;48.88;;;34.03;;
51913;SDS011;37940;53.002;6.930;2023-02-15T10:33:38;49.97;;;34.50;;
51913;SDS011;37940;53.002;6.930;2023-02-15T10:39:09;51.08;;;36.47;;
51913;SDS011;37940;53.002;6.930;2023-02-15T10:52:46;50.83;;;35.08;;
51913;SDS011;37940;53.002;6.930;2023-02-15T11:01:15;51.95;;;36.10;;
51913;SDS011;37940;53.002;6.930;2023-02-15T11:06:47;51.70;;;35.17;;
51913;SDS011;37940;53.002;6.930;2023-02-15T11:09:18;49.13;;;35.03;;
51913;SDS011;37940;53.002;6.930;2023-02-15T11:11:48;50.90;;;35.42;;
51913;SDS011;37940;53.002;6.930;2023-02-15T11:17:12;52.03;;;36.00;;
51913;SDS011;37940;53.002;6.930;2023-02-15T11:19:51;49.45;;;36.10;;
51913;SDS011;37940;53.002;6.930;2023-02-15T11:22:31;52.45;;;36.28;;
51913;SDS011;37940;53.002;6.930;2023-02-15T11:24:58;48.78;;;33.90;;
51913;SDS011;37940;53.002;6.930;2023-02-15T11:27:30;48.65;;;35.03;;
51913;SDS011;37940;53.002;6.930;2023-02-15T11:32:55;53.85;;;34.80;;
51913;SDS011;37940;53.002;6.930;2023-02-15T11:35:25;44.17;;;33.00;;
51913;SDS011;37940;53.002;6.930;2023-02-15T11:38:05;48.30;;;34.08;;
51913;SDS011;37940;53.002;6.930;2023-02-15T11:40:54;48.63;;;33.63;;
51913;SDS011;37940;53.002;6.930;2023-02-15T11:43:35;45.75;;;31.58;;
51913;SDS011;37940;53.002;6.930;2023-02-15T11:46:14;47.38;;;32.80;;
51913;SDS011;37940;53.002;6.930;2023-02-15T11:48:40;47.45;;;31.85;;
51913;SDS011;37940;53.002;6.930;2023-02-15T11:51:20;48.88;;;32.08;;
51913;SDS011;37940;53.002;6.930;2023-02-15T11:53:47;44.83;;;30.42;;
51913;SDS011;37940;53.002;6.930;2023-02-15T11:56:15;42.80;;;30.20;;
51913;SDS011;37940;53.002;6.930;2023-02-15T11:58:45;45.83;;;30.08;;
51913;SDS011;37940;53.002;6.930;2023-02-15T12:01:18;46.42;;;31.80;;
51913;SDS011;37940;53.002;6.930;2023-02-15T12:03:52;41.78;;;30.48;;
51913;SDS011;37940;53.002;6.930;2023-02-15T12:06:27;46.17;;;31.08;;
51913;SDS011;37940;53.002;6.930;2023-02-15T12:11:42;43.47;;;29.25;;
51913;SDS011;37940;53.002;6.930;2023-02-15T12:14:09;42.08;;;28.25;;
51913;SDS011;37940;53.002;6.930;2023-02-15T12:16:41;42.60;;;27.88;;
51913;SDS011;37940;53.002;6.930;2023-02-15T12:19:16;48.67;;;29.65;;
51913;SDS011;37940;53.002;6.930;2023-02-15T12:21:56;41.60;;;29.63;;
51913;SDS011;37940;53.002;6.930;2023-02-15T12:29:30;43.22;;;28.88;;
51913;SDS011;37940;53.002;6.930;2023-02-15T12:32:11;43.30;;;29.88;;
51913;SDS011;37940;53.002;6.930;2023-02-15T12:34:43;47.70;;;30.83;;
51913;SDS011;37940;53.002;6.930;2023-02-15T12:37:30;44.88;;;31.42;;
51913;SDS011;37940;53.002;6.930;2023-02-15T12:40:00;43.30;;;31.77;;
51913;SDS011;37940;53.002;6.930;2023-02-15T12:42:44;41.92;;;30.38;;
51913;SDS011;37940;53.002;6.930;2023-02-15T12:45:32;43.22;;;31.35;;
51913;SDS011;37940;53.002;6.930;2023-02-15T12:50:39;45.75;;;31.50;;
51913;SDS011;37940;53.002;6.930;2023-02-15T12:53:52;43.83;;;30.65;;
51913;SDS011;37940;53.002;6.930;2023-02-15T12:56:01;45.08;;;31.10;;
51913;SDS011;37940;53.002;6.930;2023-02-15T12:58:32;42.55;;;30.92;;
51913;SDS011;37940;53.002;6.930;2023-02-15T13:03:29;44.35;;;30.30;;
51913;SDS011;37940;53.002;6.930;2023-02-15T13:05:55;42.15;;;30.48;;
51913;SDS011;37940;53.002;6.930;2023-02-15T13:08:38;42.75;;;30.95;;
51913;SDS011;37940;53.002;6.930;2023-02-15T13:11:21;46.13;;;30.73;;
51913;SDS011;37940;53.002;6.930;2023-02-15T13:16:19;45.97;;;31.50;;
51913;SDS011;37940;53.002;6.930;2023-02-15T13:19:06;44.35;;;29.73;;
51913;SDS011;37940;53.002;6.930;2023-02-15T13:21:41;43.17;;;30.60;;
51913;SDS011;37940;53.002;6.930;2023-02-15T13:26:49;41.78;;;29.40;;
51913;SDS011;37940;53.002;6.930;2023-02-15T13:29:24;42.60;;;29.60;;
51913;SDS011;37940;53.002;6.930;2023-02-15T13:31:53;40.65;;;28.02;;
51913;SDS011;37940;53.002;6.930;2023-02-15T13:34:25;45.60;;;29.15;;
51913;SDS011;37940;53.002;6.930;2023-02-15T13:40:02;39.28;;;25.85;;
51913;SDS011;37940;53.002;6.930;2023-02-15T13:45:38;41.92;;;28.52;;
51913;SDS011;37940;53.002;6.930;2023-02-15T13:48:50;42.50;;;28.48;;
51913;SDS011;37940;53.002;6.930;2023-02-15T14:00:22;39.55;;;27.13;;
51913;SDS011;37940;53.002;6.930;2023-02-15T14:03:09;41.97;;;28.05;;
51913;SDS011;37940;53.002;6.930;2023-02-15T14:05:57;37.25;;;25.67;;
51913;SDS011;37940;53.002;6.930;2023-02-15T14:24:30;37.85;;;26.17;;
51913;SDS011;37940;53.002;6.930;2023-02-15T14:30:15;41.65;;;26.30;;
51913;SDS011;37940;53.002;6.930;2023-02-15T14:32:46;38.17;;;26.25;;
51913;SDS011;37940;53.002;6.930;2023-02-15T14:35:20;41.22;;;27.25;;
51913;SDS011;37940;53.002;6.930;2023-02-15T14:48:58;40.65;;;26.48;;
51913;SDS011;37940;53.002;6.930;2023-02-15T15:04:33;39.28;;;26.35;;
51913;SDS011;37940;53.002;6.930;2023-02-15T15:07:01;38.58;;;25.48;;
51913;SDS011;37940;53.002;6.930;2023-02-15T15:09:37;40.13;;;26.08;;
51913;SDS011;37940;53.002;6.930;2023-02-15T15:12:14;41.70;;;26.60;;
51913;SDS011;37940;53.002;6.930;2023-02-15T15:14:46;39.17;;;25.30;;
51913;SDS011;37940;53.002;6.930;2023-02-15T15:22:28;41.05;;;25.90;;
51913;SDS011;37940;53.002;6.930;2023-02-15T15:24:56;40.72;;;26.42;;
51913;SDS011;37940;53.002;6.930;2023-02-15T15:27:58;43.75;;;27.83;;
51913;SDS011;37940;53.002;6.930;2023-02-15T15:48:57;38.90;;;26.40;;
51913;SDS011;37940;53.002;6.930;2023-02-15T15:51:34;40.63;;;26.50;;
51913;SDS011;37940;53.002;6.930;2023-02-15T15:54:04;43.60;;;27.00;;
51913;SDS011;37940;53.002;6.930;2023-02-15T15:56:36;43.80;;;27.90;;
51913;SDS011;37940;53.002;6.930;2023-02-15T15:59:04;42.20;;;27.47;;
51913;SDS011;37940;53.002;6.930;2023-02-15T16:01:37;43.90;;;26.73;;
51913;SDS011;37940;53.002;6.930;2023-02-15T16:04:10;44.42;;;28.52;;
51913;SDS011;37940;53.002;6.930;2023-02-15T16:06:39;43.67;;;28.27;;
51913;SDS011;37940;53.002;6.930;2023-02-15T16:11:41;41.92;;;29.08;;
51913;SDS011;37940;53.002;6.930;2023-02-15T16:14:41;42.58;;;28.67;;
51913;SDS011;37940;53.002;6.930;2023-02-15T16:17:02;44.47;;;27.63;;
51913;SDS011;37940;53.002;6.930;2023-02-15T16:19:38;43.38;;;27.10;;
51913;SDS011;37940;53.002;6.930;2023-02-15T16:22:10;43.25;;;26.77;;
51913;SDS011;37940;53.002;6.930;2023-02-15T16:27:25;46.50;;;29.67;;
51913;SDS011;37940;53.002;6.930;2023-02-15T16:30:17;45.30;;;29.52;;
51913;SDS011;37940;53.002;6.930;2023-02-15T16:33:05;45.25;;;29.17;;
51913;SDS011;37940;53.002;6.930;2023-02-15T16:35:33;45.80;;;28.83;;
51913;SDS011;37940;53.002;6.930;2023-02-15T16:38:00;47.72;;;29.10;;
51913;SDS011;37940;53.002;6.930;2023-02-15T16:40:27;47.47;;;28.30;;
51913;SDS011;37940;53.002;6.930;2023-02-15T16:43:25;44.17;;;26.90;;
51913;SDS011;37940;53.002;6.930;2023-02-15T16:45:58;44.20;;;26.65;;
51913;SDS011;37940;53.002;6.930;2023-02-15T16:48:41;44.15;;;27.75;;
51913;SDS011;37940;53.002;6.930;2023-02-15T16:51:10;42.42;;;28.20;;
51913;SDS011;37940;53.002;6.930;2023-02-15T16:53:46;43.95;;;27.35;;
51913;SDS011;37940;53.002;6.930;2023-02-15T16:56:15;44.72;;;27.35;;
51913;SDS011;37940;53.002;6.930;2023-02-15T16:58:53;43.70;;;28.15;;
51913;SDS011;37940;53.002;6.930;2023-02-15T17:01:21;42.17;;;27.55;;
51913;SDS011;37940;53.002;6.930;2023-02-15T17:03:52;49.05;;;29.65;;
51913;SDS011;37940;53.002;6.930;2023-02-15T17:06:36;49.10;;;28.83;;
51913;SDS011;37940;53.002;6.930;2023-02-15T17:09:03;44.50;;;28.10;;
51913;SDS011;37940;53.002;6.930;2023-02-15T17:11:35;50.35;;;29.05;;
51913;SDS011;37940;53.002;6.930;2023-02-15T17:16:32;46.58;;;27.67;;
51913;SDS011;37940;53.002;6.930;2023-02-15T17:19:01;49.25;;;28.70;;
51913;SDS011;37940;53.002;6.930;2023-02-15T17:21:37;50.10;;;28.92;;
51913;SDS011;37940;53.002;6.930;2023-02-15T17:24:13;49.17;;;29.77;;
51913;SDS011;37940;53.002;6.930;2023-02-15T17:26:53;46.08;;;28.30;;
51913;SDS011;37940;53.002;6.930;2023-02-15T17:29:41;46.85;;;28.10;;
51913;SDS011;37940;53.002;6.930;2023-02-15T17:32:22;43.35;;;27.40;;
51913;SDS011;37940;53.002;6.930;2023-02-15T17:37:46;52.42;;;28.65;;
51913;SDS011;37940;53.002;6.930;2023-02-15T17:40:29;49.70;;;29.45;;
51913;SDS011;37940;53.002;6.930;2023-02-15T17:42:56;48.55;;;28.60;;
51913;SDS011;37940;53.002;6.930;2023-02-15T17:45:23;46.22;;;28.50;;
51913;SDS011;37940;53.002;6.930;2023-02-15T17:47:51;47.90;;;28.95;;
51913;SDS011;37940;53.002;6.930;2023-02-15T17:50:18;48.67;;;29.55;;
51913;SDS011;37940;53.002;6.930;2023-02-15T17:52:49;49.42;;;29.80;;
51913;SDS011;37940;53.002;6.930;2023-02-15T17:55:17;47.42;;;28.45;;
51913;SDS011;37940;53.002;6.930;2023-02-15T17:58:00;46.75;;;28.17;;
51913;SDS011;37940;53.002;6.930;2023-02-15T18:00:28;50.25;;;29.38;;
51913;SDS011;37940;53.002;6.930;2023-02-15T18:03:14;47.47;;;28.50;;
51913;SDS011;37940;53.002;6.930;2023-02-15T18:05:58;50.85;;;28.15;;
51913;SDS011;37940;53.002;6.930;2023-02-15T18:08:42;44.85;;;26.73;;
51913;SDS011;37940;53.002;6.930;2023-02-15T18:11:27;46.60;;;28.20;;
51913;SDS011;37940;53.002;6.930;2023-02-15T18:14:02;52.97;;;29.05;;
51913;SDS011;37940;53.002;6.930;2023-02-15T18:16:37;54.03;;;29.17;;
51913;SDS011;37940;53.002;6.930;2023-02-15T18:19:16;50.97;;;30.00;;
51913;SDS011;37940;53.002;6.930;2023-02-15T18:21:46;54.17;;;29.92;;
51913;SDS011;37940;53.002;6.930;2023-02-15T18:24:17;47.83;;;29.35;;
51913;SDS011;37940;53.002;6.930;2023-02-15T18:26:45;49.65;;;30.23;;
51913;SDS011;37940;53.002;6.930;2023-02-15T18:29:12;57.60;;;31.77;;